Bookmark and Share
Track history (hours):
 

Centenario Blu

Last reported at 2014-Apr-06 03:33 UTC. Time now 2014-Apr-21 12:15 UTC.
Position N 10°25' W 017°13'.
Warning: this ship's position is 15 days out of date.

Length 190 m; draft 11.4 m.

Type: Cargo ship. MMSI: 356832000.

NotesDate/timePositionNaut miles runAvg speedWind from/ knotsBaromVisibWave heightAir tempDewpointWater temp
2014-Apr-06 03:33N 10°25' W 017°13'1312.5
2014-Apr-06 02:32N 10°36' W 017°18'  
2014-Mar-30 18:05N 35°57' W 005°47'5 8.0
2014-Mar-30 17:28N 35°57' W 005°41'7 8.0
2014-Mar-30 16:33N 35°59' W 005°32'8 8.4
2014-Mar-30 15:33N 36°03' W 005°23'5 4.6
2014-Mar-30 14:32N 36°07' W 005°22'0 0.0
2014-Mar-30 13:32N 36°08' W 005°22'0 0.1
2014-Mar-30 12:32N 36°07' W 005°22'0 0.1
2014-Mar-30 11:32N 36°07' W 005°22'0 0.0
2014-Mar-30 10:32N 36°07' W 005°22'0 0.0
2014-Mar-30 09:32N 36°07' W 005°22'0 0.0
2014-Mar-30 08:32N 36°07' W 005°22'0 0.0
2014-Mar-30 07:32N 36°07' W 005°22'0 0.1
2014-Mar-30 06:32N 36°08' W 005°22'0 0.1
2014-Mar-30 05:32N 36°08' W 005°22'0 0.0
2014-Mar-30 04:32N 36°08' W 005°22'0 0.1
2014-Mar-30 03:33N 36°08' W 005°22'4 3.8
2014-Mar-30 02:33N 36°05' W 005°18'5 4.7
2014-Mar-30 01:32N 36°08' W 005°13'0 0.4
2014-Mar-30 00:32N 36°07' W 005°14'2 2.2
2014-Mar-29 23:33N 36°05' W 005°12'18811.0
2014-Mar-29 06:33N 36°56' W 001°27'1212.0
2014-Mar-29 05:32N 37°04' W 001°16'1212.3
2014-Mar-29 04:33N 37°12' W 001°05'1212.4
2014-Mar-29 03:33N 37°20' W 000°53'1212.2
2014-Mar-29 02:33N 37°28' W 000°41'1212.2
2014-Mar-29 01:33N 37°37' W 000°31'1312.5
2014-Mar-29 00:33N 37°47' W 000°22'1212.2
2014-Mar-28 23:33N 37°58' W 000°14'1212.0
2014-Mar-28 22:33N 38°08' W 000°06'11412.0
2014-Mar-28 13:05N 39°47' E 001°07'712.2
2014-Mar-28 12:33N 39°53' E 001°11'1111.5
2014-Mar-28 11:33N 40°03' E 001°18'1212.5
2014-Mar-28 10:33N 40°14' E 001°26'1212.5
2014-Mar-28 09:33N 40°25' E 001°34'1212.1
2014-Mar-28 08:33N 40°35' E 001°41'1212.1
2014-Mar-28 07:33N 40°46' E 001°49'1312.6
2014-Mar-28 06:33N 40°57' E 001°57'1212.1
2014-Mar-28 05:33N 41°08' E 002°04'1111.1
2014-Mar-28 04:32N 41°18' E 002°10'4 0.9
2014-Mar-28 00:28N 41°22' E 002°10'0 0.0
2014-Mar-27 23:28N 41°22' E 002°10'0 0.0
2014-Mar-27 22:28N 41°22' E 002°10'0 0.0
2014-Mar-27 21:28N 41°22' E 002°10'0 0.0
2014-Mar-27 20:24N 41°22' E 002°10'0 0.0
2014-Mar-27 19:31N 41°22' E 002°10'0 0.0
2014-Mar-27 18:04N 41°22' E 002°10'0 0.0
2014-Mar-27 17:28N 41°22' E 002°10'0 0.0
2014-Mar-27 16:30N 41°22' E 002°10'0 0.0
2014-Mar-27 15:16N 41°22' E 002°10'  

Dump ship's entire track history

sailing weather and tide predictions

Centenario Blu — 3FXD7 — position and weather